createdAt,value
2018-11-28T00:00:15.874Z,0.00
2018-11-28T00:01:15.890Z,0.00
2018-11-28T00:02:36.927Z,0.00
2018-11-28T00:03:15.958Z,0.00
2018-11-28T00:04:15.950Z,0.00
2018-11-28T00:05:15.953Z,0.00
2018-11-28T00:06:15.979Z,0.00
2018-11-28T00:07:16.006Z,0.00
2018-11-28T00:08:37.029Z,0.00
2018-11-28T00:09:16.033Z,0.00
2018-11-28T00:10:16.051Z,0.00
2018-11-28T00:11:16.078Z,0.00
2018-11-28T00:12:16.093Z,0.00
2018-11-28T00:13:16.117Z,0.00
2018-11-28T00:14:37.144Z,0.00
2018-11-28T00:15:16.155Z,0.00
2018-11-28T00:16:16.190Z,0.00
2018-11-28T00:17:16.217Z,0.00
2018-11-28T00:18:16.205Z,0.00
2018-11-28T00:19:16.219Z,0.00
2018-11-28T00:20:37.256Z,0.00
2018-11-28T00:21:16.259Z,0.00
2018-11-28T00:22:16.278Z,0.00
2018-11-28T00:23:16.291Z,0.00
2018-11-28T00:24:16.309Z,0.00
2018-11-28T00:25:16.334Z,0.00
2018-11-28T00:26:37.360Z,0.00
2018-11-28T00:27:16.363Z,0.00
2018-11-28T00:28:16.376Z,0.00
2018-11-28T00:29:16.397Z,0.00
2018-11-28T00:30:16.424Z,0.00
2018-11-28T00:31:16.448Z,0.00
2018-11-28T00:32:37.468Z,0.00
2018-11-28T00:33:16.469Z,0.00
2018-11-28T00:34:16.500Z,0.00
2018-11-28T00:35:16.504Z,0.00
2018-11-28T00:36:16.524Z,0.00
2018-11-28T00:37:16.544Z,0.00
2018-11-28T00:38:37.580Z,0.00
2018-11-28T00:39:16.572Z,0.00
2018-11-28T00:40:16.604Z,0.00
2018-11-28T00:41:16.649Z,0.00
2018-11-28T00:42:16.633Z,0.00
2018-11-28T00:43:16.650Z,0.00
2018-11-28T00:44:37.689Z,0.00
2018-11-28T00:45:16.697Z,0.00
2018-11-28T00:46:16.710Z,0.00
2018-11-28T00:47:16.726Z,0.00
2018-11-28T00:48:16.747Z,0.00
2018-11-28T00:49:16.778Z,0.00
2018-11-28T00:50:37.805Z,0.00
2018-11-28T00:51:16.800Z,0.00
2018-11-28T00:52:16.828Z,0.00
2018-11-28T00:53:16.841Z,0.00
2018-11-28T00:54:16.849Z,0.00
2018-11-28T00:55:16.871Z,0.00
2018-11-28T00:56:37.899Z,0.00
2018-11-28T00:57:16.903Z,0.00
2018-11-28T00:58:16.932Z,0.00
2018-11-28T00:59:16.950Z,0.00
2018-11-28T01:00:16.975Z,0.00
2018-11-28T01:01:16.979Z,0.00
2018-11-28T01:02:38.012Z,0.00
2018-11-28T01:03:17.019Z,0.00
2018-11-28T01:04:17.032Z,0.00
2018-11-28T01:05:17.053Z,0.00
2018-11-28T01:06:17.072Z,0.00
2018-11-28T01:07:17.081Z,0.00
2018-11-28T01:08:38.122Z,0.00
2018-11-28T01:09:17.124Z,0.00
2018-11-28T01:10:17.150Z,0.00
2018-11-28T01:11:17.175Z,0.00
2018-11-28T01:12:17.179Z,0.00
2018-11-28T01:13:17.212Z,0.00
2018-11-28T01:14:38.226Z,0.00
2018-11-28T01:15:17.229Z,0.00
2018-11-28T01:16:17.249Z,0.00
2018-11-28T01:17:17.273Z,0.00
2018-11-28T01:18:17.291Z,0.00
2018-11-28T01:19:17.299Z,0.00
2018-11-28T01:20:38.334Z,0.00
2018-11-28T01:21:17.337Z,0.00
2018-11-28T01:22:17.361Z,0.00
2018-11-28T01:23:17.374Z,0.00
2018-11-28T01:24:17.395Z,0.00
2018-11-28T01:25:17.421Z,0.00
2018-11-28T01:26:38.443Z,0.00
2018-11-28T01:27:17.459Z,0.00
2018-11-28T01:28:17.465Z,0.00
2018-11-28T01:29:17.489Z,0.00
2018-11-28T01:30:17.508Z,0.00
2018-11-28T01:31:17.523Z,0.00
2018-11-28T01:32:38.562Z,0.00
2018-11-28T01:33:17.568Z,0.00
2018-11-28T01:34:17.574Z,0.00
2018-11-28T01:35:17.630Z,0.00
2018-11-28T01:36:17.620Z,0.00
2018-11-28T01:37:17.634Z,0.00
2018-11-28T01:38:38.678Z,0.00
2018-11-28T01:39:17.669Z,0.00
2018-11-28T01:40:17.690Z,0.00
2018-11-28T01:41:17.706Z,0.00
2018-11-28T01:42:17.713Z,0.00
2018-11-28T01:43:17.727Z,0.00
2018-11-28T01:44:38.768Z,0.00
2018-11-28T01:45:17.771Z,0.00
2018-11-28T01:46:17.793Z,0.00
2018-11-28T01:47:17.820Z,0.00
2018-11-28T01:48:17.830Z,0.00
2018-11-28T01:49:17.847Z,0.00
2018-11-28T01:50:38.882Z,0.00
2018-11-28T01:51:17.879Z,0.00
2018-11-28T01:52:17.914Z,0.00
2018-11-28T01:53:17.920Z,0.00
2018-11-28T01:54:17.937Z,0.00
2018-11-28T01:55:17.951Z,0.00
2018-11-28T01:56:38.983Z,0.00
2018-11-28T01:57:18.039Z,0.00
2018-11-28T01:58:18.005Z,0.00
2018-11-28T01:59:18.021Z,0.00
2018-11-28T02:00:18.049Z,0.00
2018-11-28T02:01:18.055Z,0.00
2018-11-28T02:02:39.090Z,0.00
2018-11-28T02:03:18.091Z,0.00
2018-11-28T02:04:18.113Z,0.00
2018-11-28T02:05:18.151Z,0.00
2018-11-28T02:06:18.154Z,0.00
2018-11-28T02:07:18.160Z,0.00
2018-11-28T02:08:39.206Z,0.00
2018-11-28T02:09:18.208Z,0.00
2018-11-28T02:10:18.230Z,0.00
2018-11-28T02:11:18.232Z,0.00
2018-11-28T02:12:18.252Z,0.00
2018-11-28T02:13:18.272Z,0.00
2018-11-28T02:14:39.315Z,0.00
2018-11-28T02:15:18.313Z,0.00
2018-11-28T02:16:18.330Z,0.00
2018-11-28T02:17:18.342Z,0.00
2018-11-28T02:18:18.360Z,0.00
2018-11-28T02:19:18.379Z,0.00
2018-11-28T02:20:39.432Z,0.00
2018-11-28T02:21:18.588Z,0.00
2018-11-28T02:22:18.434Z,0.00
2018-11-28T02:23:18.446Z,0.00
2018-11-28T02:24:18.475Z,0.00
2018-11-28T02:25:18.483Z,0.00
2018-11-28T02:26:39.529Z,0.00
2018-11-28T02:27:18.523Z,0.00
2018-11-28T02:28:18.543Z,0.00
2018-11-28T02:29:18.562Z,0.00
2018-11-28T02:30:18.574Z,0.00
2018-11-28T02:31:18.659Z,0.00
2018-11-28T02:32:39.646Z,0.00
2018-11-28T02:33:18.659Z,0.00
2018-11-28T02:34:18.658Z,0.00
2018-11-28T02:35:18.669Z,0.00
2018-11-28T02:36:18.679Z,0.00
2018-11-28T02:37:18.700Z,0.00
2018-11-28T02:38:39.741Z,0.00
2018-11-28T02:39:18.765Z,0.00
2018-11-28T02:40:18.763Z,0.00
2018-11-28T02:41:18.772Z,0.00
2018-11-28T02:42:18.787Z,0.00
2018-11-28T02:43:18.823Z,0.00
2018-11-28T02:44:39.845Z,0.00
2018-11-28T02:45:18.848Z,0.00
2018-11-28T02:46:18.861Z,0.00
2018-11-28T02:47:18.876Z,0.00
2018-11-28T02:48:18.898Z,0.00
2018-11-28T02:49:18.934Z,0.00
2018-11-28T02:50:39.948Z,0.00
2018-11-28T02:51:18.950Z,0.00
2018-11-28T02:52:18.970Z,0.00
2018-11-28T02:53:18.990Z,0.00
2018-11-28T02:54:19.007Z,0.00
2018-11-28T02:55:19.029Z,0.00
2018-11-28T02:56:40.065Z,0.00
2018-11-28T02:57:19.056Z,0.00
2018-11-28T02:58:19.077Z,0.00
2018-11-28T02:59:19.089Z,0.00
2018-11-28T03:00:19.109Z,0.00
2018-11-28T03:01:19.124Z,0.00
2018-11-28T03:02:40.164Z,0.00
2018-11-28T03:03:19.177Z,0.00
2018-11-28T03:04:19.181Z,0.00
2018-11-28T03:05:20.085Z,0.00
2018-11-28T03:06:19.216Z,0.00
2018-11-28T03:07:19.237Z,0.00
2018-11-28T03:08:40.264Z,0.00
2018-11-28T03:09:19.284Z,0.00
2018-11-28T03:10:19.286Z,0.00
2018-11-28T03:11:19.306Z,0.00
2018-11-28T03:12:19.334Z,0.00
2018-11-28T03:13:19.358Z,0.00
2018-11-28T03:14:40.374Z,0.00
2018-11-28T03:15:19.376Z,0.00
2018-11-28T03:16:19.395Z,0.00
2018-11-28T03:17:19.414Z,0.00
2018-11-28T03:18:19.442Z,0.00
2018-11-28T03:19:19.445Z,0.00
2018-11-28T03:20:40.486Z,0.00
2018-11-28T03:21:19.484Z,0.00
2018-11-28T03:22:19.520Z,0.00
2018-11-28T03:23:19.521Z,0.00
2018-11-28T03:24:19.537Z,0.00
2018-11-28T03:25:19.551Z,0.00
2018-11-28T03:26:40.590Z,0.00
2018-11-28T03:27:19.591Z,0.00
2018-11-28T03:28:19.606Z,0.00
2018-11-28T03:29:19.622Z,0.00
2018-11-28T03:30:19.643Z,0.00
2018-11-28T03:31:19.650Z,0.00
2018-11-28T03:32:40.696Z,0.00
2018-11-28T03:33:19.697Z,0.00
2018-11-28T03:34:19.714Z,0.00
2018-11-28T03:35:19.733Z,0.00
2018-11-28T03:36:19.750Z,0.00
2018-11-28T03:37:19.784Z,0.00
2018-11-28T03:38:40.799Z,0.00
2018-11-28T03:39:19.807Z,0.00
2018-11-28T03:40:19.815Z,0.00
2018-11-28T03:41:19.845Z,0.00
2018-11-28T03:42:19.854Z,0.00
2018-11-28T03:43:19.874Z,0.00
2018-11-28T03:44:40.905Z,0.00
2018-11-28T03:45:19.908Z,0.00
2018-11-28T03:46:19.931Z,0.00
2018-11-28T03:47:19.946Z,0.00
2018-11-28T03:48:19.978Z,0.00
2018-11-28T03:49:19.982Z,0.00
2018-11-28T03:50:41.015Z,0.00
2018-11-28T03:51:20.014Z,0.00
2018-11-28T03:52:20.029Z,0.00
2018-11-28T03:53:20.043Z,0.00
2018-11-28T03:54:20.071Z,0.00
2018-11-28T03:55:20.085Z,0.00
2018-11-28T03:56:41.119Z,0.00
2018-11-28T03:57:20.130Z,0.00
2018-11-28T03:58:20.135Z,0.00
2018-11-28T03:59:20.156Z,0.00
2018-11-28T04:00:20.187Z,0.00
2018-11-28T04:01:20.192Z,0.00
2018-11-28T04:02:41.223Z,0.00
2018-11-28T04:03:20.231Z,0.00
2018-11-28T04:04:20.255Z,0.00
2018-11-28T04:05:20.262Z,0.00
2018-11-28T04:06:20.286Z,0.00
2018-11-28T04:07:20.293Z,0.00
2018-11-28T04:08:41.340Z,0.00
2018-11-28T04:09:20.326Z,0.00
2018-11-28T04:10:20.362Z,0.00
2018-11-28T04:11:20.383Z,0.00
2018-11-28T04:12:20.384Z,0.00
2018-11-28T04:13:20.396Z,0.00
2018-11-28T04:14:41.434Z,0.00
2018-11-28T04:15:20.468Z,0.00
2018-11-28T04:16:20.468Z,0.00
2018-11-28T04:17:20.469Z,0.00
2018-11-28T04:18:20.507Z,0.00
2018-11-28T04:19:20.507Z,0.00
2018-11-28T04:20:41.537Z,0.00
2018-11-28T04:21:20.553Z,0.00
2018-11-28T04:22:20.564Z,0.00
2018-11-28T04:23:20.574Z,0.00
2018-11-28T04:24:20.600Z,0.00
2018-11-28T04:25:20.605Z,0.00
2018-11-28T04:26:41.642Z,0.00
2018-11-28T04:27:20.660Z,0.00
2018-11-28T04:28:20.662Z,0.00
2018-11-28T04:29:20.676Z,0.00
2018-11-28T04:30:20.694Z,0.00
2018-11-28T04:31:20.712Z,0.00
2018-11-28T04:32:41.748Z,0.00
2018-11-28T04:33:20.753Z,0.00
2018-11-28T04:34:20.765Z,0.00
2018-11-28T04:35:20.779Z,0.00
2018-11-28T04:36:20.822Z,0.00
2018-11-28T04:37:20.821Z,0.00
2018-11-28T04:38:41.849Z,0.00
2018-11-28T04:39:20.854Z,0.00
2018-11-28T04:40:20.886Z,0.00
2018-11-28T04:41:20.889Z,0.00
2018-11-28T04:42:20.914Z,0.00
2018-11-28T04:43:20.915Z,0.00
2018-11-28T04:44:41.965Z,0.00
2018-11-28T04:45:20.952Z,0.00
2018-11-28T04:46:20.983Z,0.00
2018-11-28T04:47:20.991Z,0.00
2018-11-28T04:48:21.016Z,0.00
2018-11-28T04:49:21.021Z,0.00
2018-11-28T04:50:42.063Z,0.00
2018-11-28T04:51:21.063Z,0.00
2018-11-28T04:52:21.089Z,0.00
2018-11-28T04:53:21.099Z,0.00
2018-11-28T04:54:21.124Z,0.00
2018-11-28T04:55:21.140Z,0.00
2018-11-28T04:56:42.189Z,0.00
2018-11-28T04:57:21.159Z,0.00
2018-11-28T04:58:21.191Z,0.00
2018-11-28T04:59:21.198Z,0.00
2018-11-28T05:00:21.219Z,0.00
2018-11-28T05:01:21.240Z,0.00
2018-11-28T05:02:42.274Z,0.00
2018-11-28T05:03:21.267Z,0.00
2018-11-28T05:04:21.289Z,0.00
2018-11-28T05:05:21.303Z,0.00
2018-11-28T05:06:21.320Z,0.00
2018-11-28T05:07:21.339Z,0.00
2018-11-28T05:08:42.366Z,0.00
2018-11-28T05:09:21.365Z,0.00
2018-11-28T05:10:21.391Z,0.00
2018-11-28T05:11:21.409Z,0.00
2018-11-28T05:12:21.425Z,0.00
2018-11-28T05:13:21.456Z,0.00
2018-11-28T05:14:42.482Z,0.00
2018-11-28T05:15:21.474Z,0.00
2018-11-28T05:16:21.513Z,0.00
2018-11-28T05:17:21.514Z,0.00
2018-11-28T05:18:21.525Z,0.00
2018-11-28T05:19:21.559Z,0.00
2018-11-28T05:20:42.583Z,0.00
2018-11-28T05:21:21.586Z,0.00
2018-11-28T05:22:21.595Z,0.00
2018-11-28T05:23:21.623Z,0.00
2018-11-28T05:24:21.633Z,0.00
2018-11-28T05:25:21.647Z,0.00
2018-11-28T05:26:42.674Z,0.00
2018-11-28T05:27:21.684Z,0.00
2018-11-28T05:28:21.693Z,0.00
2018-11-28T05:29:21.715Z,0.00
2018-11-28T05:30:21.728Z,0.00
2018-11-28T05:31:21.745Z,0.00
2018-11-28T05:32:42.782Z,0.00
2018-11-28T05:33:21.787Z,0.00
2018-11-28T05:34:21.795Z,0.00
2018-11-28T05:35:21.819Z,0.00
2018-11-28T05:36:21.833Z,0.00
2018-11-28T05:37:21.852Z,0.00
2018-11-28T05:38:42.909Z,0.00
2018-11-28T05:39:21.894Z,0.00
2018-11-28T05:40:21.906Z,0.00
2018-11-28T05:41:21.919Z,0.00
2018-11-28T05:42:21.940Z,0.00
2018-11-28T05:43:21.954Z,0.00
2018-11-28T05:44:42.978Z,0.00
2018-11-28T05:45:21.988Z,0.00
2018-11-28T05:46:22.006Z,0.00
2018-11-28T05:47:22.027Z,0.00
2018-11-28T05:48:22.043Z,0.00
2018-11-28T05:49:22.055Z,0.00
2018-11-28T05:50:43.090Z,0.00
2018-11-28T05:51:22.086Z,0.00
2018-11-28T05:52:22.118Z,0.00
2018-11-28T05:53:22.123Z,0.00
2018-11-28T05:54:22.149Z,0.00
2018-11-28T05:55:22.154Z,0.00
2018-11-28T05:56:43.198Z,0.00
2018-11-28T05:57:22.186Z,0.00
2018-11-28T05:58:22.211Z,0.00
2018-11-28T05:59:27.173Z,0.00
2018-11-28T06:00:22.241Z,0.00
2018-11-28T06:01:22.257Z,0.00
2018-11-28T06:02:43.296Z,0.00
2018-11-28T06:03:22.295Z,0.00
2018-11-28T06:04:22.317Z,0.00
2018-11-28T06:05:22.327Z,0.00
2018-11-28T06:06:22.372Z,0.00
2018-11-28T06:07:22.357Z,0.00
2018-11-28T06:08:43.398Z,0.00
2018-11-28T06:09:22.396Z,0.00
2018-11-28T06:10:22.413Z,0.00
2018-11-28T06:11:22.434Z,0.00
2018-11-28T06:12:22.448Z,0.00
2018-11-28T06:13:22.474Z,0.00
2018-11-28T06:14:43.498Z,0.00
2018-11-28T06:15:22.503Z,0.00
2018-11-28T06:16:22.525Z,0.00
2018-11-28T06:17:22.530Z,0.00
2018-11-28T06:18:22.550Z,0.00
2018-11-28T06:19:22.560Z,4.00
2018-11-28T06:20:43.594Z,4.00
2018-11-28T06:21:22.611Z,0.00
2018-11-28T06:22:22.612Z,0.00
2018-11-28T06:23:22.632Z,4.00
2018-11-28T06:24:22.647Z,4.00
2018-11-28T06:25:22.678Z,0.00
2018-11-28T06:26:43.699Z,4.00
2018-11-28T06:27:22.700Z,4.00
2018-11-28T06:28:22.716Z,4.00
2018-11-28T06:29:22.740Z,4.00
2018-11-28T06:30:22.752Z,4.00
2018-11-28T06:31:22.777Z,8.00
2018-11-28T06:32:43.798Z,4.00
2018-11-28T06:33:22.795Z,8.00
2018-11-28T06:34:22.818Z,8.00
2018-11-28T06:35:22.839Z,8.00
2018-11-28T06:36:22.858Z,8.00
2018-11-28T06:37:22.862Z,12.00
2018-11-28T06:38:43.906Z,12.00
2018-11-28T06:39:22.901Z,12.00
2018-11-28T06:40:24.231Z,16.00
2018-11-28T06:41:22.936Z,16.00
2018-11-28T06:42:22.966Z,16.00
2018-11-28T06:43:22.974Z,20.00
2018-11-28T06:44:44.016Z,20.00
2018-11-28T06:45:23.016Z,24.00
2018-11-28T06:46:23.023Z,24.00
2018-11-28T06:47:23.038Z,28.00
2018-11-28T06:48:23.058Z,32.00
2018-11-28T06:49:23.073Z,32.00
2018-11-28T06:50:44.107Z,32.00
2018-11-28T06:51:23.109Z,36.00
2018-11-28T06:52:23.119Z,40.00
2018-11-28T06:53:23.200Z,44.00
2018-11-28T06:54:23.175Z,44.00
2018-11-28T06:55:23.211Z,52.00
2018-11-28T06:56:44.213Z,52.00
2018-11-28T06:57:23.213Z,56.00
2018-11-28T06:58:23.225Z,60.00
2018-11-28T06:59:23.243Z,64.00
2018-11-28T07:00:23.260Z,64.00
2018-11-28T07:01:23.281Z,68.00
2018-11-28T07:02:44.305Z,76.00
2018-11-28T07:03:23.309Z,76.00
2018-11-28T07:04:23.320Z,80.00
2018-11-28T07:05:23.339Z,84.00
2018-11-28T07:06:23.373Z,88.00
2018-11-28T07:07:23.375Z,92.00
2018-11-28T07:08:44.410Z,96.00
2018-11-28T07:09:23.414Z,100.00
2018-11-28T07:10:23.424Z,108.00
2018-11-28T07:11:23.450Z,108.00
2018-11-28T07:12:23.459Z,112.00
2018-11-28T07:13:23.476Z,120.00
2018-11-28T07:14:44.510Z,120.00
2018-11-28T07:15:23.508Z,124.00
2018-11-28T07:16:23.533Z,132.00
2018-11-28T07:17:23.542Z,132.00
2018-11-28T07:18:23.568Z,136.00
2018-11-28T07:19:23.578Z,144.00
2018-11-28T07:20:44.615Z,148.00
2018-11-28T07:21:23.615Z,152.00
2018-11-28T07:22:23.638Z,160.00
2018-11-28T07:23:23.642Z,160.00
2018-11-28T07:24:23.668Z,164.00
2018-11-28T07:25:23.685Z,172.00
2018-11-28T07:26:44.724Z,176.00
2018-11-28T07:27:23.722Z,176.00
2018-11-28T07:28:23.724Z,184.00
2018-11-28T07:29:23.753Z,188.00
2018-11-28T07:30:23.762Z,192.00
2018-11-28T07:31:23.785Z,196.00
2018-11-28T07:32:44.819Z,200.00
2018-11-28T07:33:23.832Z,204.00
2018-11-28T07:34:23.837Z,208.00
2018-11-28T07:35:23.895Z,212.00
2018-11-28T07:36:23.863Z,216.00
2018-11-28T07:37:23.890Z,220.00
2018-11-28T07:38:44.913Z,224.00
2018-11-28T07:39:23.914Z,208.00
2018-11-28T07:40:23.933Z,216.00
2018-11-28T07:41:23.956Z,216.00
2018-11-28T07:42:23.961Z,224.00
2018-11-28T07:43:23.985Z,224.00
2018-11-28T07:44:45.012Z,228.00
2018-11-28T07:45:24.027Z,256.00
2018-11-28T07:46:24.030Z,256.00
2018-11-28T07:47:24.049Z,260.00
2018-11-28T07:48:24.080Z,264.00
2018-11-28T07:49:24.084Z,272.00
2018-11-28T07:50:45.114Z,272.00
2018-11-28T07:51:24.109Z,280.00
2018-11-28T07:52:24.137Z,280.00
2018-11-28T07:53:24.149Z,288.00
2018-11-28T07:54:24.191Z,288.00
2018-11-28T07:55:24.188Z,296.00
2018-11-28T07:56:45.226Z,300.00
2018-11-28T07:57:24.232Z,304.00
2018-11-28T07:58:24.248Z,308.00
2018-11-28T07:59:24.261Z,312.00
2018-11-28T08:00:24.269Z,316.00
2018-11-28T08:01:24.283Z,316.00
2018-11-28T08:02:45.321Z,324.00
2018-11-28T08:03:24.318Z,324.00
2018-11-28T08:04:24.604Z,328.00
2018-11-28T08:05:24.363Z,332.00
2018-11-28T08:06:24.368Z,340.00
2018-11-28T08:07:24.383Z,336.00
2018-11-28T08:08:45.417Z,344.00
2018-11-28T08:09:24.433Z,348.00
2018-11-28T08:10:24.439Z,348.00
2018-11-28T08:11:24.456Z,348.00
2018-11-28T08:12:24.472Z,356.00
2018-11-28T08:13:24.495Z,360.00
2018-11-28T08:14:45.519Z,364.00
2018-11-28T08:15:24.534Z,364.00
2018-11-28T08:16:24.542Z,368.00
2018-11-28T08:17:24.557Z,376.00
2018-11-28T08:18:24.572Z,376.00
2018-11-28T08:19:24.585Z,384.00
2018-11-28T08:20:45.632Z,384.00
2018-11-28T08:21:24.615Z,384.00
2018-11-28T08:22:24.652Z,388.00
2018-11-28T08:23:24.672Z,388.00
2018-11-28T08:24:24.671Z,396.00
2018-11-28T08:25:27.754Z,396.00
2018-11-28T08:26:45.732Z,400.00
2018-11-28T08:27:24.721Z,404.00
2018-11-28T08:28:24.748Z,408.00
2018-11-28T08:29:24.756Z,412.00
2018-11-28T08:30:24.779Z,416.00
2018-11-28T08:31:24.787Z,416.00
2018-11-28T08:32:45.818Z,416.00
2018-11-28T08:33:24.830Z,420.00
2018-11-28T08:34:24.842Z,424.00
2018-11-28T08:35:24.857Z,428.00
2018-11-28T08:36:24.886Z,436.00
2018-11-28T08:37:24.891Z,436.00
2018-11-28T08:38:45.930Z,444.00
2018-11-28T08:39:24.931Z,440.00
2018-11-28T08:40:24.942Z,448.00
2018-11-28T08:41:24.966Z,448.00
2018-11-28T08:42:24.973Z,456.00
2018-11-28T08:43:24.996Z,464.00
2018-11-28T08:44:46.036Z,460.00
2018-11-28T08:45:25.028Z,460.00
2018-11-28T08:46:25.038Z,468.00
2018-11-28T08:47:25.066Z,468.00
2018-11-28T08:48:25.108Z,472.00
2018-11-28T08:49:25.098Z,476.00
2018-11-28T08:50:46.123Z,476.00
2018-11-28T08:51:25.175Z,484.00
2018-11-28T08:52:25.144Z,484.00
2018-11-28T08:53:25.161Z,484.00
2018-11-28T08:54:25.194Z,484.00
2018-11-28T08:55:25.199Z,488.00
2018-11-28T08:56:46.231Z,492.00
2018-11-28T08:57:25.240Z,492.00
2018-11-28T08:58:25.243Z,500.00
2018-11-28T08:59:25.299Z,504.00
2018-11-28T09:00:25.282Z,508.00
2018-11-28T09:01:25.295Z,512.00
2018-11-28T09:02:46.336Z,512.00
2018-11-28T09:03:25.330Z,520.00
2018-11-28T09:04:25.354Z,516.00
2018-11-28T09:05:25.369Z,516.00
2018-11-28T09:06:25.403Z,520.00
2018-11-28T09:07:25.398Z,528.00
2018-11-28T09:08:46.437Z,524.00
2018-11-28T09:09:25.460Z,532.00
2018-11-28T09:10:25.454Z,528.00
2018-11-28T09:11:25.467Z,536.00
2018-11-28T09:12:25.543Z,544.00
2018-11-28T09:13:25.525Z,544.00
2018-11-28T09:14:46.535Z,552.00
2018-11-28T09:15:25.546Z,552.00
2018-11-28T09:16:25.555Z,560.00
2018-11-28T09:17:25.581Z,560.00
2018-11-28T09:18:25.595Z,568.00
2018-11-28T09:19:25.603Z,564.00
2018-11-28T09:20:46.641Z,568.00
2018-11-28T09:21:25.638Z,576.00
2018-11-28T09:22:25.715Z,580.00
2018-11-28T09:23:25.696Z,584.00
2018-11-28T09:24:25.699Z,588.00
2018-11-28T09:25:25.714Z,592.00
2018-11-28T09:26:46.741Z,592.00
2018-11-28T09:27:25.739Z,600.00
2018-11-28T09:28:25.761Z,600.00
2018-11-28T09:29:25.775Z,604.00
2018-11-28T09:30:25.797Z,608.00
2018-11-28T09:31:25.811Z,612.00
2018-11-28T09:32:46.855Z,624.00
2018-11-28T09:33:25.852Z,620.00
2018-11-28T09:34:25.864Z,624.00
2018-11-28T09:35:25.880Z,636.00
2018-11-28T09:36:25.898Z,632.00
2018-11-28T09:37:25.910Z,636.00
2018-11-28T09:38:46.942Z,640.00
2018-11-28T09:39:25.949Z,636.00
2018-11-28T09:40:25.966Z,644.00
2018-11-28T09:41:25.982Z,652.00
2018-11-28T09:42:26.003Z,664.00
2018-11-28T09:43:26.027Z,664.00
2018-11-28T09:44:47.060Z,668.00
2018-11-28T09:45:26.048Z,672.00
2018-11-28T09:46:26.078Z,676.00
2018-11-28T09:47:26.084Z,680.00
2018-11-28T09:48:26.097Z,684.00
2018-11-28T09:49:26.133Z,692.00
2018-11-28T09:50:47.149Z,700.00
2018-11-28T09:51:26.166Z,696.00
2018-11-28T09:52:26.174Z,692.00
2018-11-28T09:53:26.186Z,708.00
2018-11-28T09:54:26.216Z,716.00
2018-11-28T09:55:26.225Z,724.00
2018-11-28T09:56:47.253Z,720.00
2018-11-28T09:57:26.259Z,720.00
2018-11-28T09:58:26.277Z,732.00
2018-11-28T09:59:26.306Z,732.00
2018-11-28T10:00:26.353Z,740.00
2018-11-28T10:01:26.337Z,732.00
2018-11-28T10:02:47.367Z,728.00
2018-11-28T10:03:26.364Z,736.00
2018-11-28T10:04:26.384Z,740.00
2018-11-28T10:05:26.399Z,740.00
2018-11-28T10:06:26.418Z,732.00
2018-11-28T10:07:26.438Z,740.00
2018-11-28T10:08:47.463Z,748.00
2018-11-28T10:09:26.476Z,744.00
2018-11-28T10:10:26.478Z,740.00
2018-11-28T10:11:26.507Z,744.00
2018-11-28T10:12:26.515Z,740.00
2018-11-28T10:13:26.543Z,736.00
2018-11-28T10:14:47.563Z,728.00
2018-11-28T10:15:26.584Z,740.00
2018-11-28T10:16:26.591Z,740.00
2018-11-28T10:17:26.605Z,732.00
2018-11-28T10:18:26.625Z,724.00
2018-11-28T10:19:26.641Z,732.00
2018-11-28T10:20:47.729Z,732.00
2018-11-28T10:21:26.678Z,732.00
2018-11-28T10:22:26.688Z,724.00
2018-11-28T10:23:26.730Z,732.00
2018-11-28T10:24:26.746Z,748.00
2018-11-28T10:25:26.742Z,748.00
2018-11-28T10:26:47.770Z,744.00
2018-11-28T10:27:26.772Z,760.00
2018-11-28T10:28:26.812Z,776.00
2018-11-28T10:29:26.823Z,788.00
2018-11-28T10:30:26.835Z,816.00
2018-11-28T10:31:26.847Z,844.00
2018-11-28T10:32:47.888Z,864.00
2018-11-28T10:33:26.904Z,884.00
2018-11-28T10:34:29.470Z,904.00
2018-11-28T10:35:26.921Z,924.00
2018-11-28T10:36:26.948Z,952.00
2018-11-28T10:37:26.968Z,988.00
2018-11-28T10:38:47.991Z,1008.00
2018-11-28T10:39:27.015Z,1036.00
2018-11-28T10:40:27.007Z,1064.00
2018-11-28T10:41:27.029Z,1104.00
2018-11-28T10:42:27.041Z,1172.00
2018-11-28T10:43:27.075Z,1288.00
2018-11-28T10:44:48.097Z,1608.00
2018-11-28T10:45:27.092Z,2032.00
2018-11-28T10:46:27.708Z,2460.00
2018-11-28T10:47:27.130Z,2304.00
2018-11-28T10:48:27.165Z,2148.00
2018-11-28T10:49:27.171Z,2092.00
2018-11-28T10:50:48.194Z,2044.00
2018-11-28T10:51:27.207Z,2372.00
2018-11-28T10:52:27.227Z,3200.00
2018-11-28T10:53:27.240Z,3820.00
2018-11-28T10:54:27.261Z,4208.00
2018-11-28T10:55:27.279Z,4388.00
2018-11-28T10:56:48.314Z,5248.00
2018-11-28T10:57:27.332Z,6132.00
2018-11-28T10:58:27.674Z,6580.00
2018-11-28T10:59:27.343Z,5908.00
2018-11-28T11:00:27.367Z,5532.00
2018-11-28T11:01:27.437Z,5276.00
2018-11-28T11:02:49.075Z,5560.00
2018-11-28T11:03:27.425Z,4584.00
2018-11-28T11:04:27.486Z,3584.00
2018-11-28T11:05:27.465Z,3432.00
2018-11-28T11:06:27.495Z,3620.00
2018-11-28T11:07:27.502Z,4168.00
2018-11-28T11:08:48.535Z,5544.00
2018-11-28T11:09:27.549Z,6752.00
2018-11-28T11:10:27.573Z,7492.00
2018-11-28T11:11:27.587Z,7696.00
2018-11-28T11:12:27.598Z,7804.00
2018-11-28T11:13:27.611Z,6396.00
2018-11-28T11:14:48.698Z,5468.00
2018-11-28T11:15:27.654Z,5076.00
2018-11-28T11:16:27.673Z,5316.00
2018-11-28T11:17:27.705Z,3660.00
2018-11-28T11:18:27.915Z,3216.00
2018-11-28T11:19:27.732Z,3472.00
2018-11-28T11:20:48.773Z,4168.00
2018-11-28T11:21:27.775Z,3356.00
2018-11-28T11:22:27.792Z,3260.00
2018-11-28T11:23:27.825Z,4040.00
2018-11-28T11:24:27.837Z,4976.00
2018-11-28T11:25:27.858Z,5444.00
2018-11-28T11:26:48.900Z,5300.00
2018-11-28T11:27:27.899Z,4508.00
2018-11-28T11:28:27.924Z,4816.00
2018-11-28T11:29:27.947Z,6168.00
2018-11-28T11:30:27.963Z,7588.00
2018-11-28T11:31:27.986Z,8504.00
2018-11-28T11:32:49.114Z,7836.00
2018-11-28T11:33:28.030Z,6540.00
2018-11-28T11:34:28.115Z,5216.00
2018-11-28T11:35:28.068Z,5372.00
2018-11-28T11:36:28.094Z,6476.00
2018-11-28T11:37:28.109Z,6864.00
2018-11-28T11:38:49.152Z,6372.00
2018-11-28T11:39:28.149Z,5584.00
2018-11-28T11:40:28.400Z,5600.00
2018-11-28T11:41:28.193Z,5892.00
2018-11-28T11:42:28.221Z,6204.00
2018-11-28T11:43:28.237Z,6248.00
2018-11-28T11:44:49.557Z,6772.00
2018-11-28T11:45:28.284Z,8144.00
2018-11-28T11:46:28.321Z,8792.00
2018-11-28T11:47:28.337Z,8852.00
2018-11-28T11:48:28.352Z,9184.00
2018-11-28T11:49:28.384Z,9228.00
2018-11-28T11:50:49.413Z,7992.00
2018-11-28T11:51:28.412Z,5888.00
2018-11-28T11:52:28.440Z,5296.00
2018-11-28T11:53:28.455Z,5748.00
2018-11-28T11:54:28.474Z,6232.00
2018-11-28T11:55:28.508Z,8624.00
2018-11-28T11:56:49.581Z,9204.00
2018-11-28T11:57:28.564Z,9704.00
2018-11-28T11:58:28.567Z,10420.00
2018-11-28T11:59:28.592Z,11016.00
2018-11-28T12:00:28.626Z,11304.00
2018-11-28T12:01:28.638Z,11408.00
2018-11-28T12:02:49.685Z,11924.00
2018-11-28T12:03:28.686Z,12600.00
2018-11-28T12:04:28.711Z,12408.00
2018-11-28T12:05:28.736Z,12428.00
2018-11-28T12:06:28.770Z,11940.00
2018-11-28T12:07:28.782Z,11128.00
2018-11-28T12:08:49.833Z,10360.00
2018-11-28T12:09:28.869Z,9656.00
2018-11-28T12:10:28.851Z,9096.00
2018-11-28T12:11:28.882Z,8152.00
2018-11-28T12:12:28.912Z,6624.00
2018-11-28T12:13:28.929Z,5352.00
2018-11-28T12:14:49.977Z,4708.00
2018-11-28T12:15:28.991Z,3076.00
2018-11-28T12:16:29.005Z,1596.00
2018-11-28T12:17:29.027Z,1252.00
2018-11-28T12:18:29.066Z,1088.00
2018-11-28T12:19:29.088Z,988.00
2018-11-28T12:20:50.124Z,932.00
2018-11-28T12:21:29.135Z,932.00
2018-11-28T12:22:29.152Z,912.00
2018-11-28T12:23:29.182Z,888.00
2018-11-28T12:24:29.211Z,864.00
2018-11-28T12:25:29.226Z,848.00
2018-11-28T12:26:50.267Z,840.00
2018-11-28T12:27:29.274Z,824.00
2018-11-28T12:28:29.292Z,808.00
2018-11-28T12:29:29.348Z,796.00
2018-11-28T12:30:29.349Z,784.00
2018-11-28T12:31:29.365Z,764.00
2018-11-28T12:32:50.408Z,744.00
2018-11-28T12:33:29.408Z,744.00
2018-11-28T12:34:29.428Z,740.00
2018-11-28T12:35:29.452Z,728.00
2018-11-28T12:36:29.466Z,716.00
2018-11-28T12:37:29.505Z,704.00
2018-11-28T12:38:50.528Z,692.00
2018-11-28T12:39:29.542Z,680.00
2018-11-28T12:40:29.557Z,668.00
2018-11-28T12:41:29.583Z,656.00
2018-11-28T12:42:29.603Z,644.00
2018-11-28T12:43:29.778Z,632.00
2018-11-28T12:44:50.654Z,624.00
2018-11-28T12:45:29.667Z,608.00
2018-11-28T12:46:29.693Z,600.00
2018-11-28T12:47:29.705Z,592.00
2018-11-28T12:48:29.726Z,576.00
2018-11-28T12:49:29.744Z,564.00
2018-11-28T12:50:50.781Z,548.00